Gorham, Kansas
Current Conditions -  °F | °C
As of 3:53 AM on Tuesday 27 Jan 2015 (Local Time) from KRSL Reporting Station
Clear Clear  
Wind Chill: -3°   Ceiling: Unl
Heat Index:   Visibility: 10mi
Dew Point: -2°   Wind: 7mph
Humidity: 82%   Direction: 230°SW
Pressure: 30.07"   Gusts: NA
Location:  38.88°N, 99.02°W
Report Text: KRSL 270953Z AUTO 23006KT 10SM CLR 01/M02 A3007 RMK AO2 SLP183 T00061022
Loading
Personal Weather Stations






























Interactive Weather Map New forecast layout! Learn more

10-Day Weather Forecast

Advertisements
Track Severe Weather on mobile